Terminal Aerodrome Forecast
Issued by NWS Binghamton, NY

Home | Current Version | Previous Version | Text Only | Print | Product List | Glossary On
Versions: 1 2 3 4 5 6 7 8 9 10 11 12 13 14 15 16 17 18 19 20 21 22 23 24 25 26 27 28 29 30 31 32
000
FTUS41 KBGM 192335
TAFAVP
TAF
KAVP 192335Z 2000/2024 16010G20KT P6SM -SHRA OVC050
      TEMPO 2000/2002 3SM -SHRA BR OVC025
     FM200200 17008KT 5SM -SHRA BR OVC025 WS020/18040KT
      TEMPO 2002/2005 2SM +TSRA BR OVC012CB
     FM200500 19010KT 6SM -SHRA BR OVC015
     FM201200 16012G20KT P6SM BKN015 OVC035
     FM201600 18012G20KT P6SM BKN025 OVC040
     FM201800 19012G20KT P6SM BKN040=

USA.gov is the U.S. government's official web portal to all federal, state and local government web resources and services.